Time;durP1;ratioP1;P1;durP2;ratioP2;P2;SDS_P1;SDS_P2;PMS_P1;PMS_P2;Temp;Humidity;BMP_temperature;BMP_pressure;BME280_temperature;BME280_humidity;BME280_pressure;Samples;Min_cycle;Max_cycle;Signal;HPM_P1;HPM_P2
2024/03/08 00:01:55;;;;;;;3.65;1.40;;;;;;;;;;5069101;28;20456;-57
2024/03/08 00:04:20;;;;;;;3.17;1.60;;;;;;;;;;5066833;28;20036;-58
2024/03/08 00:06:46;;;;;;;4.65;1.73;;;;;;;;;;5069569;28;20525;-59
2024/03/08 00:09:12;;;;;;;3.08;1.88;;;;;;;;;;5069318;28;20472;-57
2024/03/08 00:11:37;;;;;;;3.20;1.52;;;;;;;;;;5072373;28;20045;-58
2024/03/08 00:14:06;;;;;;;2.85;1.58;;;;;;;;;;5067963;28;20029;-53
2024/03/08 00:16:32;;;;;;;3.28;1.65;;;;;;;;;;5062751;28;20078;-52
2024/03/08 00:18:57;;;;;;;3.70;1.48;;;;;;;;;;5067793;28;20128;-54
2024/03/08 00:21:22;;;;;;;3.90;1.33;;;;;;;;;;5072419;28;20036;-51
2024/03/08 00:23:48;;;;;;;3.28;1.67;;;;;;;;;;5066610;28;20033;-55
2024/03/08 00:26:13;;;;;;;3.05;1.60;;;;;;;;;;5059926;28;20040;-59
2024/03/08 00:28:38;;;;;;;4.32;1.90;;;;;;;;;;5069677;28;20082;-59
2024/03/08 00:31:04;;;;;;;8.27;1.80;;;;;;;;;;5069964;28;20034;-60
2024/03/08 00:33:29;;;;;;;4.22;1.92;;;;;;;;;;5068775;28;20044;-60
2024/03/08 00:35:54;;;;;;;2.97;1.60;;;;;;;;;;5069756;28;20036;-59
2024/03/08 00:38:19;;;;;;;3.50;1.60;;;;;;;;;;5069585;28;20024;-50
2024/03/08 00:40:45;;;;;;;3.58;1.60;;;;;;;;;;5070164;28;20041;-49
2024/03/08 00:43:10;;;;;;;2.95;1.70;;;;;;;;;;5073102;28;20111;-52
2024/03/08 00:45:36;;;;;;;3.83;1.70;;;;;;;;;;5073644;28;20041;-52
2024/03/08 00:48:03;;;;;;;3.05;1.60;;;;;;;;;;5072683;28;20040;-52
2024/03/08 00:50:28;;;;;;;4.10;1.95;;;;;;;;;;5072973;28;20456;-50
2024/03/08 00:52:53;;;;;;;2.65;1.67;;;;;;;;;;5073275;28;20048;-49
2024/03/08 00:55:19;;;;;;;4.15;1.85;;;;;;;;;;5073102;28;20043;-50
2024/03/08 00:57:44;;;;;;;3.90;1.80;;;;;;;;;;5072914;28;20032;-49
2024/03/08 01:00:11;;;;;;;4.68;1.63;;;;;;;;;;5073204;28;20383;-50
2024/03/08 01:02:38;;;;;;;2.90;1.60;;;;;;;;;;5072246;28;20547;-50
2024/03/08 01:05:07;;;;;;;2.78;1.70;;;;;;;;;;5072679;28;20093;-52
2024/03/08 01:07:34;;;;;;;3.42;1.60;;;;;;;;;;5062569;28;20063;-53
2024/03/08 01:10:00;;;;;;;5.68;2.15;;;;;;;;;;5072317;28;20047;-52
2024/03/08 01:12:26;;;;;;;2.30;1.45;;;;;;;;;;5071136;28;20036;-50
2024/03/08 01:14:51;;;;;;;2.80;1.55;;;;;;;;;;5070458;28;20166;-55
2024/03/08 01:17:17;;;;;;;3.05;1.88;;;;;;;;;;5071544;28;20498;-56
2024/03/08 01:19:44;;;;;;;2.83;1.67;;;;;;;;;;5071667;28;20186;-58
2024/03/08 01:22:10;;;;;;;3.15;1.73;;;;;;;;;;5072216;28;20059;-55
2024/03/08 01:24:35;;;;;;;2.95;1.60;;;;;;;;;;5071433;28;20519;-59
2024/03/08 01:27:01;;;;;;;3.28;1.70;;;;;;;;;;5071874;28;20103;-60
2024/03/08 01:29:27;;;;;;;3.60;2.05;;;;;;;;;;5072134;28;20073;-56
2024/03/08 01:31:53;;;;;;;3.50;1.90;;;;;;;;;;5072264;28;20064;-60
2024/03/08 01:34:18;;;;;;;2.72;1.70;;;;;;;;;;5071530;28;20072;-57
2024/03/08 01:36:43;;;;;;;2.75;1.45;;;;;;;;;;5072339;28;20029;-57
2024/03/08 01:39:09;;;;;;;3.97;1.60;;;;;;;;;;5072436;28;20051;-56
2024/03/08 01:41:35;;;;;;;3.10;1.83;;;;;;;;;;5072116;28;20025;-58
2024/03/08 01:44:01;;;;;;;2.88;1.85;;;;;;;;;;5072366;28;20032;-51
2024/03/08 01:46:28;;;;;;;3.00;1.70;;;;;;;;;;5072265;28;20075;-51
2024/03/08 01:48:54;;;;;;;2.78;1.67;;;;;;;;;;5071673;28;20025;-54
2024/03/08 01:51:19;;;;;;;4.90;1.60;;;;;;;;;;5071373;28;20036;-54
2024/03/08 01:53:46;;;;;;;3.22;1.85;;;;;;;;;;5071259;28;20045;-52
2024/03/08 01:56:13;;;;;;;3.20;1.80;;;;;;;;;;5072112;28;20563;-53
2024/03/08 01:58:43;;;;;;;2.53;1.60;;;;;;;;;;5071413;28;20105;-49
2024/03/08 02:01:09;;;;;;;2.83;1.80;;;;;;;;;;5065174;28;20044;-52
2024/03/08 02:03:34;;;;;;;2.60;1.60;;;;;;;;;;5071200;28;20483;-50
2024/03/08 02:05:59;;;;;;;2.38;1.50;;;;;;;;;;5071197;28;20058;-52
2024/03/08 02:08:25;;;;;;;3.70;1.98;;;;;;;;;;5071588;28;20043;-50
2024/03/08 02:10:50;;;;;;;3.30;1.80;;;;;;;;;;5071979;28;20120;-52
2024/03/08 02:13:16;;;;;;;3.13;1.70;;;;;;;;;;5053610;28;20051;-49
2024/03/08 02:16:01;;;;;;;3.95;2.08;;;;;;;;;;5071593;28;20085;-54
2024/03/08 02:18:28;;;;;;;3.15;1.80;;;;;;;;;;5065410;28;20036;-54
2024/03/08 02:21:00;;;;;;;3.60;1.95;;;;;;;;;;5070986;28;20056;-51
2024/03/08 02:23:26;;;;;;;3.40;1.90;;;;;;;;;;5069979;28;20032;-52
2024/03/08 02:25:53;;;;;;;2.97;1.67;;;;;;;;;;5071230;28;20036;-50
2024/03/08 02:28:18;;;;;;;3.90;1.83;;;;;;;;;;5071368;28;20040;-52
2024/03/08 02:30:44;;;;;;;3.55;2.00;;;;;;;;;;5065738;28;20035;-49
2024/03/08 02:33:13;;;;;;;3.55;1.70;;;;;;;;;;5070698;28;20123;-50
2024/03/08 02:35:39;;;;;;;2.95;1.58;;;;;;;;;;5071336;28;20146;-50
2024/03/08 02:38:04;;;;;;;2.90;1.75;;;;;;;;;;5070677;28;20063;-51
2024/03/08 02:40:30;;;;;;;3.60;1.95;;;;;;;;;;5069124;28;20075;-51
2024/03/08 02:42:55;;;;;;;4.25;1.90;;;;;;;;;;5071098;28;20032;-53
2024/03/08 02:45:21;;;;;;;4.25;2.10;;;;;;;;;;5070428;28;20036;-51
2024/03/08 02:47:46;;;;;;;2.80;1.80;;;;;;;;;;5069833;28;20040;-49
2024/03/08 02:50:11;;;;;;;3.15;1.85;;;;;;;;;;5071237;28;20070;-50
2024/03/08 02:52:37;;;;;;;3.50;1.90;;;;;;;;;;5070399;28;20028;-51
2024/03/08 02:55:02;;;;;;;2.80;1.52;;;;;;;;;;5070804;28;20047;-49
2024/03/08 02:57:28;;;;;;;3.30;2.00;;;;;;;;;;5070262;28;20036;-53
2024/03/08 02:59:53;;;;;;;4.65;2.08;;;;;;;;;;5068562;28;20032;-52
2024/03/08 03:02:19;;;;;;;3.58;2.03;;;;;;;;;;5069914;28;20132;-53
2024/03/08 03:04:44;;;;;;;3.35;2.00;;;;;;;;;;5070189;28;20040;-52
2024/03/08 03:07:10;;;;;;;3.70;1.95;;;;;;;;;;5070189;28;20025;-49
2024/03/08 03:09:36;;;;;;;3.45;1.80;;;;;;;;;;5070473;28;20075;-53
2024/03/08 03:12:02;;;;;;;3.58;1.98;;;;;;;;;;5070518;28;20071;-50
2024/03/08 03:14:27;;;;;;;3.20;1.92;;;;;;;;;;5070438;28;20036;-52
2024/03/08 03:16:54;;;;;;;3.00;1.90;;;;;;;;;;5070081;28;20103;-53
2024/03/08 03:19:19;;;;;;;3.45;2.15;;;;;;;;;;5070071;28;20049;-50
2024/03/08 03:21:45;;;;;;;3.35;1.92;;;;;;;;;;5070504;28;20081;-52
2024/03/08 03:24:12;;;;;;;3.35;2.00;;;;;;;;;;5069745;28;20123;-49
2024/03/08 03:26:38;;;;;;;3.13;1.70;;;;;;;;;;5070688;28;20036;-54
2024/03/08 03:29:06;;;;;;;3.22;1.90;;;;;;;;;;5070070;28;20082;-51
2024/03/08 03:31:31;;;;;;;2.78;1.75;;;;;;;;;;5067613;28;20036;-50
2024/03/08 03:34:01;;;;;;;3.47;2.00;;;;;;;;;;5069728;28;20035;-52
2024/03/08 03:36:27;;;;;;;4.32;2.33;;;;;;;;;;5070126;28;20032;-49
2024/03/08 03:39:04;;;;;;;2.95;1.73;;;;;;;;;;5069882;28;20128;-53
2024/03/08 03:41:30;;;;;;;3.75;1.85;;;;;;;;;;5057759;28;20442;-54
2024/03/08 03:43:55;;;;;;;4.05;1.98;;;;;;;;;;5070340;28;20036;-49
2024/03/08 03:46:20;;;;;;;4.10;2.05;;;;;;;;;;5069844;28;20032;-52
2024/03/08 03:48:46;;;;;;;3.38;2.00;;;;;;;;;;5069862;28;20059;-51
2024/03/08 03:51:12;;;;;;;4.25;2.00;;;;;;;;;;5070357;28;20549;-49
2024/03/08 03:53:37;;;;;;;3.67;1.98;;;;;;;;;;5069444;28;20464;-52
2024/03/08 03:56:06;;;;;;;3.38;2.00;;;;;;;;;;5070152;28;20039;-50
2024/03/08 03:58:32;;;;;;;3.08;1.98;;;;;;;;;;5065349;28;20082;-52
2024/03/08 04:00:58;;;;;;;5.28;2.10;;;;;;;;;;5069724;28;20045;-49
2024/03/08 04:03:23;;;;;;;3.28;2.22;;;;;;;;;;5069397;28;20574;-50
2024/03/08 04:05:48;;;;;;;2.70;1.70;;;;;;;;;;5069670;28;20464;-54
2024/03/08 04:08:14;;;;;;;3.70;2.20;;;;;;;;;;5069956;28;20032;-51
2024/03/08 04:10:41;;;;;;;4.10;2.30;;;;;;;;;;5069839;28;20116;-51
2024/03/08 04:13:07;;;;;;;3.20;1.88;;;;;;;;;;5058868;28;20036;-50
2024/03/08 04:15:32;;;;;;;4.20;2.20;;;;;;;;;;5070586;28;20039;-50
2024/03/08 04:18:00;;;;;;;3.83;2.13;;;;;;;;;;5073547;28;20476;-53
2024/03/08 04:20:25;;;;;;;3.85;2.20;;;;;;;;;;5073980;28;20098;-51
2024/03/08 04:22:50;;;;;;;2.80;1.75;;;;;;;;;;5073601;28;20040;-52
2024/03/08 04:25:16;;;;;;;2.95;1.85;;;;;;;;;;5073645;28;20119;-51
2024/03/08 04:27:41;;;;;;;3.25;1.95;;;;;;;;;;5072970;28;20116;-52
2024/03/08 04:30:07;;;;;;;3.97;2.00;;;;;;;;;;5073612;28;20055;-50
2024/03/08 04:32:32;;;;;;;3.60;2.30;;;;;;;;;;5073237;28;20032;-54
2024/03/08 04:34:58;;;;;;;3.47;2.08;;;;;;;;;;5073706;28;20040;-51
2024/03/08 04:37:23;;;;;;;3.20;2.00;;;;;;;;;;5073464;28;20089;-52
2024/03/08 04:39:49;;;;;;;4.18;2.28;;;;;;;;;;5072990;28;20029;-50
2024/03/08 04:42:15;;;;;;;4.43;2.30;;;;;;;;;;5073220;28;20032;-54
2024/03/08 04:44:40;;;;;;;4.45;2.38;;;;;;;;;;5072987;28;20081;-50
2024/03/08 04:47:05;;;;;;;4.57;2.10;;;;;;;;;;5073471;28;20360;-49
2024/03/08 04:49:34;;;;;;;3.53;2.10;;;;;;;;;;5073011;28;20115;-50
2024/03/08 04:52:02;;;;;;;4.88;2.60;;;;;;;;;;5073166;28;20033;-52
2024/03/08 04:54:28;;;;;;;4.28;1.90;;;;;;;;;;5072857;28;20040;-54
2024/03/08 04:56:53;;;;;;;3.22;1.92;;;;;;;;;;5073081;28;20044;-53
2024/03/08 04:59:19;;;;;;;4.07;2.40;;;;;;;;;;5072604;28;20040;-51
2024/03/08 05:01:44;;;;;;;3.38;2.00;;;;;;;;;;5072351;28;20090;-50
2024/03/08 05:04:09;;;;;;;3.53;2.28;;;;;;;;;;5071997;28;20062;-50
2024/03/08 05:06:36;;;;;;;3.53;2.22;;;;;;;;;;5073019;28;20048;-52
2024/03/08 05:09:13;;;;;;;4.75;2.40;;;;;;;;;;5072897;28;20036;-52
2024/03/08 05:11:39;;;;;;;3.83;2.20;;;;;;;;;;5072575;28;20044;-50
2024/03/08 05:14:05;;;;;;;3.63;2.05;;;;;;;;;;5072553;28;20048;-51
2024/03/08 05:16:30;;;;;;;3.17;2.17;;;;;;;;;;5073074;28;20120;-50
2024/03/08 05:18:56;;;;;;;3.63;2.17;;;;;;;;;;5072004;28;20052;-54
2024/03/08 05:21:22;;;;;;;3.70;2.22;;;;;;;;;;5072568;28;20043;-53
2024/03/08 05:23:47;;;;;;;3.47;2.20;;;;;;;;;;5072217;28;20653;-52
2024/03/08 05:26:13;;;;;;;4.00;2.25;;;;;;;;;;5071878;28;20032;-51
2024/03/08 05:28:39;;;;;;;3.33;2.03;;;;;;;;;;5071431;28;20516;-51
2024/03/08 05:31:04;;;;;;;3.25;1.92;;;;;;;;;;5072788;28;20075;-50
2024/03/08 05:33:30;;;;;;;3.50;2.05;;;;;;;;;;5071883;28;20105;-53
2024/03/08 05:35:55;;;;;;;3.53;2.17;;;;;;;;;;5071989;28;20047;-54
2024/03/08 05:38:21;;;;;;;3.40;2.00;;;;;;;;;;5071551;28;20395;-52
2024/03/08 05:40:46;;;;;;;3.50;2.03;;;;;;;;;;5072573;28;20037;-53
2024/03/08 05:43:12;;;;;;;3.75;2.38;;;;;;;;;;5069807;28;20146;-51
2024/03/08 05:45:37;;;;;;;3.00;1.90;;;;;;;;;;5054424;28;20037;-53
2024/03/08 05:48:03;;;;;;;3.83;1.88;;;;;;;;;;5071905;28;20032;-53
2024/03/08 05:50:28;;;;;;;3.05;1.92;;;;;;;;;;5065972;28;20041;-50
2024/03/08 05:52:54;;;;;;;4.00;2.40;;;;;;;;;;5071488;28;20028;-50
2024/03/08 05:55:19;;;;;;;4.85;1.90;;;;;;;;;;5070766;28;20032;-53
2024/03/08 05:57:44;;;;;;;4.72;2.33;;;;;;;;;;5071740;28;20044;-50
2024/03/08 06:00:15;;;;;;;3.80;2.17;;;;;;;;;;5071560;28;20037;-52
2024/03/08 06:02:41;;;;;;;3.00;2.10;;;;;;;;;;5071304;28;20028;-50
2024/03/08 06:05:10;;;;;;;3.33;2.05;;;;;;;;;;5071828;28;20403;-53
2024/03/08 06:07:36;;;;;;;3.83;2.33;;;;;;;;;;5070955;28;20077;-53
2024/03/08 06:10:03;;;;;;;3.80;2.03;;;;;;;;;;5071568;28;20400;-52
2024/03/08 06:12:28;;;;;;;4.32;2.40;;;;;;;;;;5071933;28;20048;-52
2024/03/08 06:14:54;;;;;;;3.42;2.13;;;;;;;;;;5071263;28;20055;-52
2024/03/08 06:17:19;;;;;;;3.05;1.95;;;;;;;;;;5071603;28;20396;-50
2024/03/08 06:19:46;;;;;;;5.78;2.03;;;;;;;;;;5071405;28;20044;-50
2024/03/08 06:22:11;;;;;;;3.67;2.13;;;;;;;;;;5065118;28;20510;-50
2024/03/08 06:24:38;;;;;;;3.63;2.25;;;;;;;;;;5069690;28;20037;-54
2024/03/08 06:27:03;;;;;;;5.07;2.65;;;;;;;;;;5070328;28;20109;-59
2024/03/08 06:29:29;;;;;;;3.00;2.10;;;;;;;;;;5070656;28;20484;-58
2024/03/08 06:31:55;;;;;;;5.30;2.40;;;;;;;;;;5069090;28;20127;-58
2024/03/08 06:34:20;;;;;;;4.18;1.92;;;;;;;;;;5071182;28;20055;-58
2024/03/08 06:36:46;;;;;;;5.30;2.00;;;;;;;;;;5070956;28;20040;-58
2024/03/08 06:39:11;;;;;;;3.17;2.10;;;;;;;;;;5067755;28;20032;-53
2024/03/08 06:41:37;;;;;;;3.63;2.15;;;;;;;;;;5070816;28;20124;-51
2024/03/08 06:44:02;;;;;;;3.55;2.30;;;;;;;;;;5061020;28;20054;-60
2024/03/08 06:46:28;;;;;;;3.53;2.30;;;;;;;;;;5063547;28;20372;-61
2024/03/08 06:48:53;;;;;;;2.63;1.75;;;;;;;;;;5070306;28;20076;-59
2024/03/08 06:51:18;;;;;;;3.50;2.05;;;;;;;;;;5070264;28;20476;-60
2024/03/08 06:53:44;;;;;;;4.03;2.00;;;;;;;;;;5069923;28;20373;-60
2024/03/08 06:56:09;;;;;;;3.53;2.13;;;;;;;;;;5066640;28;20036;-60
2024/03/08 06:58:35;;;;;;;4.22;2.15;;;;;;;;;;5070116;28;20045;-58
2024/03/08 07:01:03;;;;;;;3.40;1.90;;;;;;;;;;5069330;28;20047;-57
2024/03/08 07:03:29;;;;;;;3.50;2.22;;;;;;;;;;5070553;28;20120;-60
2024/03/08 07:05:56;;;;;;;3.15;1.98;;;;;;;;;;5070642;28;20135;-60
2024/03/08 07:08:22;;;;;;;3.17;2.03;;;;;;;;;;5069529;28;20113;-61
2024/03/08 07:10:49;;;;;;;3.08;2.00;;;;;;;;;;5070541;28;20557;-59
2024/03/08 07:13:14;;;;;;;3.55;2.15;;;;;;;;;;5069572;28;20387;-57
2024/03/08 07:15:40;;;;;;;3.58;1.90;;;;;;;;;;5070237;28;20123;-57
2024/03/08 07:18:05;;;;;;;3.25;1.83;;;;;;;;;;5070355;28;20503;-59
2024/03/08 07:20:31;;;;;;;2.88;1.83;;;;;;;;;;5070367;28;20052;-60
2024/03/08 07:22:56;;;;;;;3.78;1.90;;;;;;;;;;5069120;28;20476;-60
2024/03/08 07:25:22;;;;;;;3.47;1.90;;;;;;;;;;5070030;28;20040;-59
2024/03/08 07:27:48;;;;;;;3.53;2.13;;;;;;;;;;5069097;28;20426;-60
2024/03/08 07:30:52;;;;;;;3.97;1.92;;;;;;;;;;5069922;28;20036;-60
2024/03/08 07:32:59;;;;;;;4.53;1.98;;;;;;;;;;5068287;28;20052;-60
2024/03/08 07:35:26;;;;;;;4.45;2.22;;;;;;;;;;5069449;28;20044;-61
2024/03/08 07:37:54;;;;;;;3.83;1.98;;;;;;;;;;5070159;28;20094;-59
2024/03/08 07:40:20;;;;;;;3.42;1.80;;;;;;;;;;5069384;28;20137;-61
2024/03/08 07:42:45;;;;;;;5.13;2.22;;;;;;;;;;5069333;28;20071;-61
2024/03/08 07:45:12;;;;;;;4.75;2.50;;;;;;;;;;5071174;28;20391;-61
2024/03/08 07:47:38;;;;;;;3.10;1.90;;;;;;;;;;5069931;28;20032;-59
2024/03/08 07:50:03;;;;;;;3.95;2.15;;;;;;;;;;5069765;28;20048;-60
2024/03/08 07:52:29;;;;;;;3.58;1.90;;;;;;;;;;5064789;28;20627;-60
2024/03/08 07:54:54;;;;;;;4.22;2.08;;;;;;;;;;5067909;28;20066;-55
2024/03/08 07:57:20;;;;;;;4.43;2.17;;;;;;;;;;5069826;28;20123;-58
2024/03/08 07:59:45;;;;;;;4.47;1.70;;;;;;;;;;5069837;28;20045;-61
2024/03/08 08:02:10;;;;;;;3.35;2.00;;;;;;;;;;5068641;28;20541;-59
2024/03/08 08:04:36;;;;;;;3.13;1.63;;;;;;;;;;5069666;28;20544;-58
2024/03/08 08:07:01;;;;;;;4.25;1.85;;;;;;;;;;5069122;28;20622;-59
2024/03/08 08:09:34;;;;;;;4.18;1.92;;;;;;;;;;5069067;28;20116;-58
2024/03/08 08:12:03;;;;;;;3.57;1.80;;;;;;;;;;5069018;28;20047;-55
2024/03/08 08:14:29;;;;;;;10.30;1.95;;;;;;;;;;5068808;28;20297;-54
2024/03/08 08:16:55;;;;;;;4.45;1.90;;;;;;;;;;5067491;28;20429;-54
2024/03/08 08:19:21;;;;;;;3.83;2.10;;;;;;;;;;5069391;28;20040;-51
2024/03/08 08:21:46;;;;;;;4.75;2.03;;;;;;;;;;5069977;28;20037;-48
2024/03/08 08:24:12;;;;;;;4.50;2.25;;;;;;;;;;5068569;28;20047;-50
2024/03/08 08:26:37;;;;;;;4.85;1.80;;;;;;;;;;5067645;28;20032;-59
2024/03/08 08:29:02;;;;;;;4.22;1.80;;;;;;;;;;5069889;28;20102;-58
2024/03/08 08:31:28;;;;;;;3.72;2.00;;;;;;;;;;5069954;28;20044;-59
2024/03/08 08:33:58;;;;;;;3.97;2.10;;;;;;;;;;5069430;28;20060;-58
2024/03/08 08:36:26;;;;;;;4.05;2.28;;;;;;;;;;5069657;28;20036;-60
2024/03/08 08:38:54;;;;;;;5.00;2.13;;;;;;;;;;5069548;28;20040;-54
2024/03/08 08:41:21;;;;;;;4.07;2.00;;;;;;;;;;5069096;28;20060;-60
2024/03/08 08:43:46;;;;;;;4.55;2.17;;;;;;;;;;5069258;28;20033;-61
2024/03/08 08:46:14;;;;;;;3.95;2.00;;;;;;;;;;5069389;28;20428;-58
2024/03/08 08:48:42;;;;;;;3.67;2.10;;;;;;;;;;5069535;28;20056;-60
2024/03/08 08:51:15;;;;;;;4.95;2.05;;;;;;;;;;5069240;28;20037;-60
2024/03/08 08:53:42;;;;;;;3.88;2.25;;;;;;;;;;5069512;28;20047;-53
2024/03/08 08:56:08;;;;;;;3.63;2.15;;;;;;;;;;5069364;28;20040;-53
2024/03/08 08:58:33;;;;;;;5.20;2.00;;;;;;;;;;5069340;28;20037;-52
2024/03/08 09:00:59;;;;;;;3.75;2.22;;;;;;;;;;5069501;28;20102;-49
2024/03/08 09:03:27;;;;;;;4.07;1.98;;;;;;;;;;5072498;28;20094;-50
2024/03/08 09:05:52;;;;;;;3.45;2.22;;;;;;;;;;5068678;28;20051;-58
2024/03/08 09:08:18;;;;;;;3.60;2.10;;;;;;;;;;5060399;28;20033;-59
2024/03/08 09:10:43;;;;;;;5.30;2.03;;;;;;;;;;5070863;28;20041;-58
2024/03/08 09:13:10;;;;;;;4.78;1.98;;;;;;;;;;5071506;28;20055;-59
2024/03/08 09:15:36;;;;;;;3.95;2.00;;;;;;;;;;5070338;28;20464;-59
2024/03/08 09:18:02;;;;;;;4.35;2.00;;;;;;;;;;5050892;28;20032;-59
2024/03/08 09:20:28;;;;;;;5.00;2.05;;;;;;;;;;5066057;28;20088;-60
2024/03/08 09:22:54;;;;;;;4.15;2.20;;;;;;;;;;5068487;28;20594;-57
2024/03/08 09:25:20;;;;;;;4.20;2.20;;;;;;;;;;5068693;28;20033;-59
2024/03/08 09:27:46;;;;;;;3.83;2.10;;;;;;;;;;5066587;28;20047;-58
2024/03/08 09:30:13;;;;;;;4.50;2.13;;;;;;;;;;5067546;28;20025;-59
2024/03/08 09:32:38;;;;;;;5.03;2.30;;;;;;;;;;5068120;28;20044;-58
2024/03/08 09:35:06;;;;;;;3.55;1.98;;;;;;;;;;5067420;28;20369;-58
2024/03/08 09:37:33;;;;;;;3.22;1.92;;;;;;;;;;5068127;28;20139;-56
2024/03/08 09:39:59;;;;;;;3.67;2.00;;;;;;;;;;5068037;28;20048;-58
2024/03/08 09:42:24;;;;;;;3.65;2.03;;;;;;;;;;5067541;28;20041;-58
2024/03/08 09:44:49;;;;;;;4.15;2.20;;;;;;;;;;5067650;28;20565;-59
2024/03/08 09:47:16;;;;;;;3.85;2.15;;;;;;;;;;5067855;28;20042;-56
2024/03/08 09:49:43;;;;;;;5.00;2.70;;;;;;;;;;5067337;28;20040;-60
2024/03/08 09:52:09;;;;;;;5.15;2.35;;;;;;;;;;5064081;28;20036;-57
2024/03/08 09:54:35;;;;;;;4.90;2.35;;;;;;;;;;5066735;28;20403;-58
2024/03/08 09:57:03;;;;;;;3.83;2.22;;;;;;;;;;5065730;28;20044;-57
2024/03/08 10:01:58;;;;;;;4.80;2.50;;;;;;;;;;5066268;28;20044;-58
2024/03/08 10:04:24;;;;;;;4.82;2.67;;;;;;;;;;5063886;28;20732;-59
2024/03/08 10:06:49;;;;;;;4.10;2.45;;;;;;;;;;5060826;28;20044;-58
2024/03/08 10:09:15;;;;;;;6.63;2.67;;;;;;;;;;5046014;28;20055;-59
2024/03/08 10:11:41;;;;;;;4.10;2.20;;;;;;;;;;5066617;28;20044;-58
2024/03/08 10:14:08;;;;;;;4.28;2.15;;;;;;;;;;5065743;28;20404;-55
2024/03/08 10:16:35;;;;;;;3.90;2.33;;;;;;;;;;5068330;28;20075;-58
2024/03/08 10:19:00;;;;;;;5.75;2.75;;;;;;;;;;5066543;28;20048;-59
2024/03/08 10:21:26;;;;;;;4.35;2.30;;;;;;;;;;5065736;28;20032;-58
2024/03/08 10:23:51;;;;;;;4.53;2.45;;;;;;;;;;5063344;28;20041;-58
2024/03/08 10:26:18;;;;;;;9.00;2.40;;;;;;;;;;5048419;28;20033;-58
2024/03/08 10:28:47;;;;;;;4.60;2.15;;;;;;;;;;5064474;28;20035;-59
2024/03/08 10:31:14;;;;;;;7.05;3.15;;;;;;;;;;5065869;28;20045;-60
2024/03/08 10:33:41;;;;;;;4.18;2.22;;;;;;;;;;5066375;28;20121;-56
2024/03/08 10:36:10;;;;;;;8.55;2.95;;;;;;;;;;5066326;28;20066;-57
2024/03/08 10:38:38;;;;;;;7.07;2.63;;;;;;;;;;5066244;28;20174;-59
2024/03/08 10:41:06;;;;;;;6.28;2.60;;;;;;;;;;5042270;28;20399;-59
2024/03/08 10:43:37;;;;;;;5.70;2.90;;;;;;;;;;5067255;28;20032;-59
2024/03/08 10:46:14;;;;;;;6.18;2.67;;;;;;;;;;5065571;28;20399;-59
2024/03/08 10:48:47;;;;;;;5.35;2.60;;;;;;;;;;5066489;28;20036;-60
2024/03/08 10:51:12;;;;;;;4.40;2.60;;;;;;;;;;5066647;28;20043;-60
2024/03/08 10:53:41;;;;;;;5.15;2.50;;;;;;;;;;5066184;28;20041;-60
2024/03/08 10:56:07;;;;;;;4.82;2.20;;;;;;;;;;5064984;28;20105;-60
2024/03/08 10:58:34;;;;;;;6.10;2.30;;;;;;;;;;5066292;28;20786;-60
2024/03/08 11:00:59;;;;;;;5.47;2.30;;;;;;;;;;5064899;28;20033;-61
2024/03/08 11:03:40;;;;;;;5.65;2.45;;;;;;;;;;5063372;28;20025;-61
2024/03/08 11:06:08;;;;;;;4.63;2.38;;;;;;;;;;5050326;28;20040;-61
2024/03/08 11:08:33;;;;;;;4.95;2.03;;;;;;;;;;5065680;28;20033;-61
2024/03/08 11:10:59;;;;;;;6.18;2.53;;;;;;;;;;5064229;28;20040;-61
2024/03/08 11:13:45;;;;;;;4.57;2.40;;;;;;;;;;5063823;28;20136;-61
2024/03/08 11:16:12;;;;;;;4.45;2.38;;;;;;;;;;5056312;28;20479;-61
2024/03/08 11:18:38;;;;;;;4.45;2.65;;;;;;;;;;5063124;28;20051;-61
2024/03/08 11:21:06;;;;;;;4.88;2.08;;;;;;;;;;5066430;28;20028;-58
2024/03/08 11:23:33;;;;;;;7.55;2.33;;;;;;;;;;5066254;28;20029;-59
2024/03/08 11:25:59;;;;;;;8.30;2.13;;;;;;;;;;5065319;28;20036;-60
2024/03/08 11:28:24;;;;;;;6.35;2.10;;;;;;;;;;5065979;28;20601;-61
2024/03/08 11:30:59;;;;;;;5.10;2.38;;;;;;;;;;5065691;28;20033;-57
2024/03/08 11:33:26;;;;;;;4.78;2.20;;;;;;;;;;5068473;28;20036;-58
2024/03/08 11:35:52;;;;;;;6.32;2.40;;;;;;;;;;5069845;28;20035;-59
2024/03/08 11:38:19;;;;;;;4.43;2.05;;;;;;;;;;5051417;28;20036;-58
2024/03/08 11:40:49;;;;;;;4.32;2.22;;;;;;;;;;5068678;28;20484;-56
2024/03/08 11:43:16;;;;;;;3.80;2.33;;;;;;;;;;5068181;28;20043;-59
2024/03/08 11:45:41;;;;;;;4.93;2.58;;;;;;;;;;5068851;28;20032;-59
2024/03/08 11:48:06;;;;;;;7.32;2.30;;;;;;;;;;5064878;28;20044;-58
2024/03/08 11:50:32;;;;;;;3.80;2.20;;;;;;;;;;5059002;28;20033;-60
2024/03/08 11:53:03;;;;;;;4.82;2.33;;;;;;;;;;5065673;28;20119;-58
2024/03/08 11:55:29;;;;;;;4.88;2.15;;;;;;;;;;5062954;28;20098;-59
2024/03/08 11:58:03;;;;;;;3.67;2.22;;;;;;;;;;5063796;28;20056;-57
2024/03/08 12:00:35;;;;;;;4.18;2.38;;;;;;;;;;5065610;28;20049;-59
2024/03/08 12:03:04;;;;;;;4.38;2.28;;;;;;;;;;5065003;28;20380;-58
2024/03/08 12:05:31;;;;;;;5.78;2.70;;;;;;;;;;5063608;28;20118;-58
2024/03/08 12:08:00;;;;;;;6.65;2.20;;;;;;;;;;5065506;28;20031;-57
2024/03/08 12:10:25;;;;;;;5.10;2.10;;;;;;;;;;5063475;28;20078;-58
2024/03/08 12:12:53;;;;;;;4.95;2.20;;;;;;;;;;5051617;28;20182;-60
2024/03/08 12:15:19;;;;;;;3.47;2.10;;;;;;;;;;5064649;28;20368;-59
2024/03/08 12:17:48;;;;;;;4.35;2.30;;;;;;;;;;5065070;28;20033;-60
2024/03/08 12:20:21;;;;;;;5.05;2.80;;;;;;;;;;5064243;28;20040;-59
2024/03/08 12:22:47;;;;;;;3.83;2.00;;;;;;;;;;5065433;28;20049;-59
2024/03/08 12:25:13;;;;;;;4.50;2.10;;;;;;;;;;5065310;28;20059;-59
2024/03/08 12:27:43;;;;;;;3.58;2.40;;;;;;;;;;5065524;28;20043;-59
2024/03/08 12:30:28;;;;;;;3.70;2.03;;;;;;;;;;5065466;28;20059;-59
2024/03/08 12:32:58;;;;;;;3.95;2.10;;;;;;;;;;5064526;28;20127;-59
2024/03/08 12:35:25;;;;;;;3.30;1.80;;;;;;;;;;5064323;28;20036;-60
2024/03/08 12:37:52;;;;;;;4.43;2.00;;;;;;;;;;5064038;28;20032;-58
2024/03/08 12:40:18;;;;;;;4.55;2.13;;;;;;;;;;5073947;28;20145;-57
2024/03/08 12:42:47;;;;;;;4.20;2.03;;;;;;;;;;5069028;28;20075;-59
2024/03/08 12:45:13;;;;;;;3.40;2.15;;;;;;;;;;5068027;28;20151;-58
2024/03/08 12:47:40;;;;;;;6.05;2.38;;;;;;;;;;5067395;28;20036;-58
2024/03/08 12:50:08;;;;;;;5.20;1.95;;;;;;;;;;5060852;28;20060;-61
2024/03/08 12:52:34;;;;;;;4.95;2.30;;;;;;;;;;5051441;28;20044;-58
2024/03/08 12:55:06;;;;;;;4.90;2.05;;;;;;;;;;5052159;28;20090;-58
2024/03/08 12:57:33;;;;;;;4.97;2.20;;;;;;;;;;5066370;28;20107;-57
2024/03/08 12:59:59;;;;;;;6.53;2.33;;;;;;;;;;5067551;28;20091;-60
2024/03/08 13:02:25;;;;;;;4.63;2.67;;;;;;;;;;5067458;28;20036;-58
2024/03/08 13:04:57;;;;;;;4.45;2.40;;;;;;;;;;5066361;28;20036;-60
2024/03/08 13:07:24;;;;;;;4.28;2.08;;;;;;;;;;5063298;28;20044;-61
2024/03/08 13:09:49;;;;;;;3.90;1.90;;;;;;;;;;5067162;28;20044;-58
2024/03/08 13:12:15;;;;;;;5.47;2.40;;;;;;;;;;5066554;28;20032;-59
2024/03/08 13:14:41;;;;;;;3.95;2.00;;;;;;;;;;5066990;28;20119;-60
2024/03/08 13:17:10;;;;;;;4.10;2.55;;;;;;;;;;5066455;28;20032;-58
2024/03/08 13:19:36;;;;;;;6.03;2.00;;;;;;;;;;5066760;28;20090;-60
2024/03/08 13:22:04;;;;;;;3.97;1.80;;;;;;;;;;5066486;28;20044;-61
2024/03/08 13:24:30;;;;;;;4.75;2.20;;;;;;;;;;5067104;28;20028;-59
2024/03/08 13:26:55;;;;;;;5.50;2.10;;;;;;;;;;5067998;28;20089;-60
2024/03/08 13:29:21;;;;;;;5.75;2.20;;;;;;;;;;5068056;28;20029;-59
2024/03/08 13:31:51;;;;;;;9.05;2.50;;;;;;;;;;5068161;28;20020;-60
2024/03/08 13:34:17;;;;;;;4.60;1.92;;;;;;;;;;5068218;28;20056;-61
2024/03/08 13:36:43;;;;;;;5.45;2.28;;;;;;;;;;5070726;28;20107;-60
2024/03/08 13:39:20;;;;;;;6.07;2.03;;;;;;;;;;5057980;28;20036;-60
2024/03/08 13:41:46;;;;;;;4.03;2.00;;;;;;;;;;5071740;28;20036;-62
2024/03/08 13:44:12;;;;;;;4.93;2.30;;;;;;;;;;5063273;28;20039;-60
2024/03/08 13:46:37;;;;;;;6.57;2.05;;;;;;;;;;5067908;28;20043;-60
2024/03/08 13:49:09;;;;;;;6.18;2.03;;;;;;;;;;5068790;28;20452;-59
2024/03/08 13:51:34;;;;;;;4.75;2.22;;;;;;;;;;5070013;28;20048;-61
2024/03/08 13:54:00;;;;;;;3.75;2.13;;;;;;;;;;5068118;28;20029;-60
2024/03/08 13:56:26;;;;;;;3.40;1.70;;;;;;;;;;5068692;28;20400;-59
2024/03/08 13:58:52;;;;;;;3.72;1.50;;;;;;;;;;5050682;28;20075;-60
2024/03/08 14:01:17;;;;;;;3.97;2.38;;;;;;;;;;5068040;28;20121;-61
2024/03/08 14:03:42;;;;;;;8.57;2.20;;;;;;;;;;5068826;28;20036;-59
2024/03/08 14:06:09;;;;;;;3.72;2.00;;;;;;;;;;5068456;28;20055;-61
2024/03/08 14:08:37;;;;;;;4.95;2.10;;;;;;;;;;5067908;28;20047;-60
2024/03/08 14:11:10;;;;;;;6.38;1.73;;;;;;;;;;5068759;28;20028;-58
2024/03/08 14:13:40;;;;;;;3.25;1.80;;;;;;;;;;5065439;28;20062;-60
2024/03/08 14:16:05;;;;;;;3.08;1.70;;;;;;;;;;5068958;28;20115;-59
2024/03/08 14:18:31;;;;;;;5.55;2.25;;;;;;;;;;5068443;28;20495;-60
2024/03/08 14:20:56;;;;;;;4.18;1.80;;;;;;;;;;5068525;28;20055;-61
2024/03/08 14:23:22;;;;;;;8.30;2.80;;;;;;;;;;5068221;28;20047;-60
2024/03/08 14:25:51;;;;;;;5.22;2.28;;;;;;;;;;5068632;28;20040;-60
2024/03/08 14:28:19;;;;;;;3.53;1.90;;;;;;;;;;5068707;28;20040;-58
2024/03/08 14:30:44;;;;;;;7.00;2.40;;;;;;;;;;5068255;28;20040;-56
2024/03/08 14:33:10;;;;;;;5.13;2.10;;;;;;;;;;5068311;28;20379;-60
2024/03/08 14:35:36;;;;;;;4.72;2.00;;;;;;;;;;5068898;28;20032;-62
2024/03/08 14:38:01;;;;;;;3.83;1.98;;;;;;;;;;5068102;28;20545;-56
2024/03/08 14:40:27;;;;;;;4.22;1.70;;;;;;;;;;5067811;28;20115;-59
2024/03/08 14:42:52;;;;;;;5.68;2.10;;;;;;;;;;5068649;28;20163;-60